Time;durP1;ratioP1;P1;durP2;ratioP2;P2;SDS_P1;SDS_P2;PMS_P1;PMS_P2;Temp;Humidity;BMP_temperature;BMP_pressure;BME280_temperature;BME280_humidity;BME280_pressure;Samples;Min_cycle;Max_cycle;Signal;HPM_P1;HPM_P2
2023/10/04 06:20:33;;;;;;;;;41.33;36.00;;;;;;;;6178720;22;46274;31
2023/10/04 06:23:05;;;;;;;;;10.33;10.33;;;;;;;;6128894;23;45164;-90
2023/10/04 06:25:30;;;;;;;;;8.00;8.00;;;;;;;;6128995;23;45330;-91
2023/10/04 06:34:39;;;;;;;;;19.75;19.50;;;;;;;;6237409;22;45650;-95
2023/10/04 06:45:39;;;;;;;;;4.33;4.00;;;;;;;;6218507;22;45745;-91
2023/10/04 06:48:05;;;;;;;;;4.67;4.67;;;;;;;;6218321;22;45524;-91
2023/10/04 06:50:38;;;;;;;;;9.00;9.00;;;;;;;;6217810;22;45594;-92
2023/10/04 06:53:04;;;;;;;;;2.67;2.67;;;;;;;;6245498;22;46085;-91
2023/10/04 06:55:33;;;;;;;;;2.00;2.00;;;;;;;;6245340;22;45194;-91
2023/10/04 06:57:58;;;;;;;;;3.00;3.00;;;;;;;;6218851;22;45379;-91
2023/10/04 07:00:27;;;;;;;;;7.33;4.00;;;;;;;;6246510;22;45474;-91
2023/10/04 07:02:56;;;;;;;;;2.67;2.00;;;;;;;;6217646;22;47701;-92
2023/10/04 07:05:39;;;;;;;;;2.00;2.00;;;;;;;;6219346;22;45690;-91
2023/10/04 07:08:16;;;;;;;;;2.33;2.33;;;;;;;;6248144;22;45452;-93
2023/10/04 07:10:43;;;;;;;;;2.33;2.00;;;;;;;;6221506;22;45303;-91
2023/10/04 07:13:09;;;;;;;;;2.00;1.67;;;;;;;;6247086;22;45487;-91
2023/10/04 07:15:44;;;;;;;;;1.33;1.33;;;;;;;;6248374;22;45359;-91
2023/10/04 07:18:10;;;;;;;;;3.00;3.00;;;;;;;;6249883;22;45385;-91
2023/10/04 07:20:35;;;;;;;;;4.00;4.00;;;;;;;;6249094;22;45222;-91
2023/10/04 07:23:03;;;;;;;;;7.33;7.33;;;;;;;;6249476;22;45757;-91
2023/10/04 07:25:30;;;;;;;;;2.33;2.33;;;;;;;;6248683;22;45260;-91
2023/10/04 07:27:56;;;;;;;;;4.00;2.00;;;;;;;;6221769;22;45387;-91
2023/10/04 07:30:22;;;;;;;;;2.33;2.33;;;;;;;;6249307;22;45526;-91
2023/10/04 07:32:55;;;;;;;;;4.00;4.00;;;;;;;;6249229;22;45348;-92
2023/10/04 07:35:24;;;;;;;;;3.00;3.00;;;;;;;;6248887;22;45323;-91
2023/10/04 07:37:50;;;;;;;;;2.33;2.33;;;;;;;;6221782;22;45659;-91
2023/10/04 07:40:16;;;;;;;;;3.00;3.00;;;;;;;;6248976;22;45226;-91
2023/10/04 07:42:45;;;;;;;;;0.00;0.00;;;;;;;;6222469;22;46787;-91
2023/10/04 07:45:10;;;;;;;;;4.00;2.00;;;;;;;;6221798;22;45317;-91
2023/10/04 07:47:41;;;;;;;;;6.33;4.00;;;;;;;;6250009;22;45313;-91
2023/10/04 07:50:09;;;;;;;;;2.00;2.00;;;;;;;;6249042;22;45451;-91
2023/10/04 07:52:35;;;;;;;;;3.00;3.00;;;;;;;;6249872;22;46207;-91
2023/10/04 07:55:01;;;;;;;;;2.00;2.00;;;;;;;;6222578;22;45707;-91
2023/10/04 07:57:27;;;;;;;;;2.00;2.00;;;;;;;;6250724;22;45299;-91
2023/10/04 07:59:52;;;;;;;;;4.67;3.00;;;;;;;;6249502;22;45357;-91
2023/10/04 08:02:17;;;;;;;;;3.33;3.33;;;;;;;;6221989;22;46995;-91
2023/10/04 08:04:45;;;;;;;;;7.00;7.00;;;;;;;;6220334;22;45629;-91
2023/10/04 08:07:15;;;;;;;;;7.33;7.33;;;;;;;;6220327;22;45270;-91
2023/10/04 08:09:41;;;;;;;;;2.00;2.00;;;;;;;;6249589;22;45410;-91
2023/10/04 08:12:07;;;;;;;;;3.33;3.33;;;;;;;;6246053;22;45700;-91
2023/10/04 08:14:33;;;;;;;;;3.00;3.00;;;;;;;;6247099;22;45408;-91
2023/10/04 08:16:58;;;;;;;;;7.33;5.67;;;;;;;;6246378;22;45592;-91
2023/10/04 08:19:24;;;;;;;;;28.33;28.33;;;;;;;;6247405;22;45363;-90
2023/10/04 08:21:49;;;;;;;;;13.33;10.67;;;;;;;;6220306;22;48168;-90
2023/10/04 08:24:15;;;;;;;;;4.00;4.00;;;;;;;;6247504;22;45384;-90
2023/10/04 08:26:42;;;;;;;;;6.33;6.33;;;;;;;;6245806;22;45529;-90
2023/10/04 08:29:07;;;;;;;;;7.33;6.33;;;;;;;;6246750;22;45296;-90
2023/10/04 08:31:33;;;;;;;;;5.00;5.00;;;;;;;;6248690;22;46182;-90
2023/10/04 08:33:59;;;;;;;;;8.33;8.00;;;;;;;;6246094;22;45301;-91
2023/10/04 08:36:24;;;;;;;;;12.00;11.00;;;;;;;;6246985;22;45213;-90
2023/10/04 08:38:52;;;;;;;;;15.00;13.67;;;;;;;;6245173;22;45497;-90
2023/10/04 08:41:18;;;;;;;;;9.33;9.33;;;;;;;;6246197;22;45390;-91
2023/10/04 08:43:45;;;;;;;;;3.00;3.00;;;;;;;;6218881;22;45529;-90
2023/10/04 08:46:11;;;;;;;;;1.67;1.67;;;;;;;;6221417;22;45130;-91
2023/10/04 08:48:36;;;;;;;;;3.33;3.33;;;;;;;;6248862;22;45185;-91
2023/10/04 08:51:05;;;;;;;;;21.00;18.00;;;;;;;;6219206;22;46672;-91
2023/10/04 08:53:49;;;;;;;;;30.00;25.00;;;;;;;;6218892;22;45241;-90
2023/10/04 08:56:15;;;;;;;;;10.67;9.67;;;;;;;;6248370;22;45165;-91
2023/10/04 08:58:43;;;;;;;;;8.33;8.33;;;;;;;;6250060;22;45689;-90
2023/10/04 09:01:10;;;;;;;;;5.67;5.67;;;;;;;;6249801;22;45410;-91
2023/10/04 09:03:38;;;;;;;;;6.33;5.67;;;;;;;;6249938;22;45265;-91
2023/10/04 09:06:05;;;;;;;;;4.00;4.00;;;;;;;;6222729;22;45273;-91
2023/10/04 09:08:30;;;;;;;;;24.33;23.00;;;;;;;;6221353;22;45328;-90
2023/10/04 09:10:56;;;;;;;;;7.67;6.33;;;;;;;;6247789;22;45704;-91
2023/10/04 09:13:22;;;;;;;;;3.33;3.33;;;;;;;;6247918;22;45366;-91
2023/10/04 09:15:48;;;;;;;;;3.00;3.00;;;;;;;;6248651;22;45380;-91
2023/10/04 09:18:23;;;;;;;;;2.33;2.33;;;;;;;;6250313;22;45413;-91
2023/10/04 09:20:48;;;;;;;;;5.33;5.33;;;;;;;;6220878;22;47165;-91
2023/10/04 09:23:15;;;;;;;;;4.67;4.67;;;;;;;;6222554;22;45369;-91
2023/10/04 09:25:40;;;;;;;;;2.00;2.00;;;;;;;;6222110;22;45357;-91
2023/10/04 09:28:09;;;;;;;;;3.00;3.00;;;;;;;;6247934;22;45238;-90
2023/10/04 09:30:36;;;;;;;;;1.67;1.67;;;;;;;;6249177;22;45325;-91
2023/10/04 09:33:04;;;;;;;;;5.33;3.67;;;;;;;;6249606;22;45326;-91
2023/10/04 09:35:50;;;;;;;;;4.33;3.00;;;;;;;;6248933;22;45387;-90
2023/10/04 09:38:22;;;;;;;;;2.67;2.67;;;;;;;;6222472;22;45238;-91
2023/10/04 09:40:51;;;;;;;;;2.67;2.67;;;;;;;;6249339;22;45267;-91
2023/10/04 09:43:17;;;;;;;;;2.33;2.33;;;;;;;;6222312;22;45189;-91
2023/10/04 09:45:55;;;;;;;;;2.00;1.00;;;;;;;;6221863;22;45229;-91
2023/10/04 09:48:21;;;;;;;;;0.00;0.00;;;;;;;;6250092;22;45379;-90
2023/10/04 09:51:00;;;;;;;;;1.67;1.67;;;;;;;;6221027;22;47328;-96
2023/10/04 09:53:25;;;;;;;;;2.33;2.33;;;;;;;;6246554;22;45764;-93
2023/10/04 09:55:52;;;;;;;;;4.33;3.00;;;;;;;;6222076;22;45343;-93
2023/10/04 09:58:30;;;;;;;;;3.00;3.00;;;;;;;;6222068;22;45751;-93
2023/10/04 10:00:57;;;;;;;;;3.00;3.00;;;;;;;;6248940;22;47701;-93
2023/10/04 10:03:47;;;;;;;;;2.67;2.00;;;;;;;;6220067;22;45402;-93
2023/10/04 10:41:12;;;;;;;;;;;;;;;;;;;;;
2023/10/04 10:44:05;;;;;;;;;1.00;1.00;;;;;;;;6213122;22;76562;-93
2023/10/04 10:49:50;;;;;;;;;1.67;1.67;;;;;;;;6083441;23;45784;-93
2023/10/04 10:52:33;;;;;;;;;2.00;2.00;;;;;;;;6095679;23;45741;-93
2023/10/04 10:55:17;;;;;;;;;;;;;;;;;;;;;
2023/10/04 11:01:06;;;;;;;;;2.00;2.00;;;;;;;;6154248;23;45448;-93
2023/10/04 11:03:46;;;;;;;;;1.00;1.00;;;;;;;;6154207;23;45452;-93
2023/10/04 11:06:48;;;;;;;;;1.00;1.00;;;;;;;;6153329;23;47501;-94
2023/10/04 11:09:48;;;;;;;;;;;;;;;;;;;;;
2023/10/04 11:12:37;;;;;;;;;;;;;;;;;;;;;
2023/10/04 11:15:26;;;;;;;;;1.00;1.00;;;;;;;;6217102;22;64992;-93
2023/10/04 11:18:15;;;;;;;;;1.00;1.00;;;;;;;;6217100;22;46757;-93
2023/10/04 11:20:58;;;;;;;;;3.00;3.00;;;;;;;;6189144;22;45403;-93
2023/10/04 11:23:23;;;;;;;;;1.00;1.00;;;;;;;;6215301;22;45295;-93
2023/10/04 11:29:25;;;;;;;;;;;;;;;;;;;;;
2023/10/04 11:32:21;;;;;;;;;;;;;;;;;;;;;
2023/10/04 11:35:30;;;;;;;;;;;;;;;;;;;;;
2023/10/04 11:38:21;;;;;;;;;;;;;;;;;;;;;
2023/10/04 11:41:10;;;;;;;;;;;;;;;;;;;;;
2023/10/04 11:47:20;;;;;;;;;;;;;;;;;;;;;
2023/10/04 11:56:33;;;;;;;;;1.00;1.00;;;;;;;;6211202;22;45299;-93
2023/10/04 11:59:32;;;;;;;;;;;;;;;;;;;;;
2023/10/04 12:02:35;;;;;;;;;;;;;;;;;;;;;
2023/10/04 12:05:22;;;;;;;;;0.00;0.00;;;;;;;;6214658;22;45581;-94
2023/10/04 12:08:09;;;;;;;;;2.00;0.00;;;;;;;;6187293;22;45335;-94
2023/10/04 12:11:13;;;;;;;;;;;;;;;;;;;;;
2023/10/04 12:13:48;;;;;;;;;0.33;0.33;;;;;;;;6209412;22;45389;-93
2023/10/04 12:16:21;;;;;;;;;1.00;1.00;;;;;;;;6217777;22;45401;-93
2023/10/04 12:19:02;;;;;;;;;;;;;;;;;;;;;
2023/10/04 12:24:54;;;;;;;;;;;;;;;;;;;;;
2023/10/04 12:27:52;;;;;;;;;;;;;;;;;;;;;
2023/10/04 12:30:31;;;;;;;;;;;;;;;;;;;;;
2023/10/04 12:33:34;;;;;;;;;1.00;1.00;;;;;;;;6217694;22;69120;-94
2023/10/04 12:39:06;;;;;;;;;1.00;1.00;;;;;;;;6206787;22;46364;-93
2023/10/04 12:41:41;;;;;;;;;2.00;2.00;;;;;;;;6219830;22;45434;-93
2023/10/04 12:44:37;;;;;;;;;2.00;2.00;;;;;;;;6250458;22;45216;-93
2023/10/04 12:47:05;;;;;;;;;1.00;1.00;;;;;;;;6234933;22;45644;-93
2023/10/04 16:57:13;;;;;;;;;;;;;;;;;;;;;
